createdAt,value
2018-11-02T00:01:42.552Z,6.60
2018-11-02T00:06:39.178Z,6.70
2018-11-02T00:09:07.712Z,6.70
2018-11-02T00:11:36.197Z,6.70
2018-11-02T00:16:32.804Z,6.50
2018-11-02T00:19:01.298Z,6.40
2018-11-02T00:21:29.733Z,6.30
2018-11-02T00:23:58.151Z,6.30
2018-11-02T00:26:26.631Z,6.20
2018-11-02T00:28:55.109Z,6.10
2018-11-02T00:31:23.532Z,6.10
2018-11-02T00:33:51.974Z,6.10
2018-11-02T00:36:20.425Z,6.20
2018-11-02T00:38:48.978Z,6.20
2018-11-02T00:41:17.476Z,6.20
2018-11-02T00:43:46.011Z,6.20
2018-11-02T00:46:14.553Z,6.20
2018-11-02T00:48:43.034Z,6.20
2018-11-02T00:53:39.664Z,6.20
2018-11-02T00:56:08.159Z,6.20
2018-11-02T00:58:36.754Z,6.20
2018-11-02T01:01:05.337Z,6.30
2018-11-02T01:03:33.826Z,6.30
2018-11-02T01:06:02.261Z,6.40
2018-11-02T01:08:30.787Z,6.50
2018-11-02T01:10:59.297Z,6.50
2018-11-02T01:18:24.094Z,6.50
2018-11-02T01:20:52.602Z,6.50
2018-11-02T01:23:21.187Z,6.50
2018-11-02T01:25:49.640Z,6.50
2018-11-02T01:30:46.323Z,6.30
2018-11-02T01:33:14.742Z,6.20
2018-11-02T01:35:43.226Z,6.20
2018-11-02T01:38:11.713Z,6.20
2018-11-02T01:40:40.247Z,6.10
2018-11-02T01:45:36.937Z,6.00
2018-11-02T01:50:33.666Z,6.00
2018-11-02T01:53:02.174Z,5.90
2018-11-02T01:55:30.680Z,5.90
2018-11-02T01:57:59.178Z,6.00
2018-11-02T02:00:27.682Z,6.10
2018-11-02T02:07:52.452Z,5.90
2018-11-02T02:10:21.031Z,5.80
2018-11-02T02:12:49.722Z,5.70
2018-11-02T02:15:18.211Z,5.60
2018-11-02T02:17:46.649Z,5.70
2018-11-02T02:22:43.245Z,5.80
2018-11-02T02:27:39.876Z,5.70
2018-11-02T02:32:38.189Z,5.70
2018-11-02T02:35:07.200Z,5.70
2018-11-02T02:37:36.125Z,5.70
2018-11-02T02:40:05.063Z,5.60
2018-11-02T02:42:33.489Z,5.70
2018-11-02T02:45:01.974Z,5.70
2018-11-02T02:47:30.491Z,5.70
2018-11-02T02:49:58.988Z,5.70
2018-11-02T02:52:27.746Z,5.80
2018-11-02T02:54:56.327Z,5.80
2018-11-02T02:57:24.786Z,5.90
2018-11-02T02:59:53.268Z,6.00
2018-11-02T03:02:21.691Z,6.10
2018-11-02T03:04:50.150Z,6.10
2018-11-02T03:09:46.676Z,6.00
2018-11-02T03:12:15.161Z,5.90
2018-11-02T03:14:43.571Z,6.00
2018-11-02T03:17:12.096Z,6.00
2018-11-02T03:19:40.581Z,6.10
2018-11-02T03:24:37.203Z,6.20
2018-11-02T03:27:05.826Z,6.30
2018-11-02T03:29:34.263Z,6.40
2018-11-02T03:32:02.709Z,6.40
2018-11-02T03:36:59.325Z,6.30
2018-11-02T03:39:27.774Z,6.00
2018-11-02T03:41:56.292Z,5.80
2018-11-02T03:44:24.800Z,5.80
2018-11-02T03:49:21.393Z,5.90
2018-11-02T03:51:49.882Z,5.80
2018-11-02T03:54:18.366Z,5.70
2018-11-02T03:56:46.922Z,5.70
2018-11-02T04:01:43.494Z,5.60
2018-11-02T04:04:11.920Z,5.60
2018-11-02T04:06:40.392Z,5.50
2018-11-02T04:09:09.406Z,5.40
2018-11-02T04:11:37.974Z,5.50
2018-11-02T04:14:06.450Z,5.50
2018-11-02T04:16:34.918Z,5.50
2018-11-02T04:19:03.405Z,5.50
2018-11-02T04:21:36.153Z,5.50
2018-11-02T04:24:04.663Z,5.40
2018-11-02T04:26:33.117Z,5.40
2018-11-02T04:33:57.884Z,5.50
2018-11-02T04:36:26.373Z,5.60
2018-11-02T04:41:22.991Z,5.60
2018-11-02T04:43:51.462Z,5.70
2018-11-02T04:46:19.877Z,5.80
2018-11-02T04:51:16.639Z,5.90
2018-11-02T04:56:13.169Z,5.70
2018-11-02T04:58:41.705Z,5.70
2018-11-02T05:01:10.148Z,5.70
2018-11-02T05:03:38.649Z,5.60
2018-11-02T05:06:07.109Z,5.50
2018-11-02T05:11:03.727Z,5.60
2018-11-02T05:13:32.205Z,5.70
2018-11-02T05:18:28.999Z,6.00
2018-11-02T05:20:57.460Z,6.00
2018-11-02T05:26:24.565Z,5.90
2018-11-02T05:28:52.997Z,5.70
2018-11-02T05:31:21.466Z,5.70
2018-11-02T05:33:49.961Z,5.60
2018-11-02T05:36:18.366Z,5.60
2018-11-02T05:38:46.804Z,5.60
2018-11-02T05:41:15.404Z,5.60
2018-11-02T05:43:43.852Z,5.60
2018-11-02T05:46:12.355Z,5.60
2018-11-02T05:48:41.652Z,5.70
2018-11-02T05:51:10.194Z,5.80
2018-11-02T05:56:06.808Z,6.00
2018-11-02T06:01:03.413Z,5.80
2018-11-02T06:03:31.889Z,5.70
2018-11-02T06:06:00.408Z,5.60
2018-11-02T06:08:28.896Z,5.60
2018-11-02T06:10:57.333Z,5.60
2018-11-02T06:13:25.833Z,5.50
2018-11-02T06:15:54.228Z,5.50
2018-11-02T06:18:22.785Z,5.50
2018-11-02T06:20:51.269Z,5.50
2018-11-02T06:23:19.752Z,5.50
2018-11-02T06:25:48.259Z,5.60
2018-11-02T06:28:16.706Z,5.70
2018-11-02T06:33:13.776Z,5.70
2018-11-02T06:40:38.556Z,6.00
2018-11-02T06:43:07.699Z,6.00
2018-11-02T06:45:36.182Z,6.00
2018-11-02T06:48:04.687Z,6.00
2018-11-02T06:50:33.223Z,5.90
2018-11-02T06:53:01.727Z,5.90
2018-11-02T06:55:30.168Z,5.80
2018-11-02T06:57:58.583Z,5.80
2018-11-02T07:00:27.124Z,5.80
2018-11-02T07:02:55.364Z,5.70
2018-11-02T07:05:23.772Z,5.80
2018-11-02T07:07:52.197Z,5.80
2018-11-02T07:10:20.646Z,5.90
2018-11-02T07:12:49.120Z,6.00
2018-11-02T07:15:17.547Z,6.10
2018-11-02T07:17:46.067Z,6.10
2018-11-02T07:20:14.536Z,6.20
2018-11-02T07:22:42.982Z,6.20
2018-11-02T07:25:11.493Z,6.20
2018-11-02T07:27:39.864Z,6.30
2018-11-02T07:30:09.374Z,6.20
2018-11-02T07:32:37.848Z,6.20
2018-11-02T07:40:02.676Z,6.20
2018-11-02T07:42:31.109Z,6.20
2018-11-02T07:44:59.527Z,6.20
2018-11-02T07:47:27.924Z,6.10
2018-11-02T07:49:56.344Z,6.20
2018-11-02T07:54:52.909Z,6.30
2018-11-02T07:57:21.360Z,6.30
2018-11-02T07:59:49.828Z,6.30
2018-11-02T08:02:18.260Z,6.40
2018-11-02T08:12:11.120Z,6.60
2018-11-02T08:14:39.611Z,6.80
2018-11-02T08:17:08.080Z,6.80
2018-11-02T08:19:36.547Z,6.80
2018-11-02T08:22:05.422Z,6.80
2018-11-02T08:24:34.011Z,6.80
2018-11-02T08:27:02.338Z,6.90
2018-11-02T08:29:30.800Z,7.00
2018-11-02T08:31:59.235Z,7.00
2018-11-02T08:34:27.712Z,7.00
2018-11-02T08:36:56.138Z,7.10
2018-11-02T08:39:24.531Z,7.20
2018-11-02T08:44:21.077Z,7.20
2018-11-02T08:46:49.484Z,7.20
2018-11-02T08:49:17.906Z,7.30
2018-11-02T08:54:14.485Z,7.40
2018-11-02T08:56:42.860Z,7.50
2018-11-02T08:59:11.335Z,7.50
2018-11-02T09:01:39.697Z,7.50
2018-11-02T09:04:08.104Z,7.50
2018-11-02T09:06:36.512Z,7.50
2018-11-02T09:09:06.708Z,7.60
2018-11-02T09:18:59.739Z,7.80
2018-11-02T09:21:28.491Z,7.80
2018-11-02T09:23:56.705Z,7.80
2018-11-02T09:26:25.464Z,7.90
2018-11-02T09:28:54.221Z,8.00
2018-11-02T09:31:22.704Z,8.00
2018-11-02T09:33:51.116Z,8.10
2018-11-02T09:36:19.559Z,8.20
2018-11-02T09:41:16.216Z,8.40
2018-11-02T09:43:44.660Z,8.30
2018-11-02T09:46:13.184Z,8.30
2018-11-02T09:48:41.650Z,8.20
2018-11-02T09:51:10.097Z,8.20
2018-11-02T09:53:39.502Z,8.30
2018-11-02T09:56:07.984Z,8.30
2018-11-02T09:58:36.448Z,8.40
2018-11-02T10:01:05.225Z,8.40
2018-11-02T10:03:33.740Z,8.50
2018-11-02T10:06:02.292Z,8.60
2018-11-02T10:08:30.805Z,8.60
2018-11-02T10:10:59.324Z,8.70
2018-11-02T10:15:55.900Z,8.70
2018-11-02T10:18:24.352Z,8.70
2018-11-02T10:20:52.800Z,8.70
2018-11-02T10:23:21.196Z,8.70
2018-11-02T10:25:49.640Z,8.80
2018-11-02T10:28:18.216Z,8.80
2018-11-02T10:33:14.903Z,8.90
2018-11-02T10:35:43.413Z,8.90
2018-11-02T10:40:41.767Z,9.00
2018-11-02T10:43:12.524Z,9.10
2018-11-02T10:45:44.050Z,9.20
2018-11-02T10:48:12.527Z,9.30
2018-11-02T10:50:40.940Z,9.30
2018-11-02T10:53:09.381Z,9.30
2018-11-02T10:55:37.793Z,9.40
2018-11-02T10:58:06.368Z,9.50
2018-11-02T11:00:40.290Z,9.50
2018-11-02T11:08:04.901Z,9.50
2018-11-02T11:10:33.332Z,9.50
2018-11-02T11:13:02.106Z,9.50
2018-11-02T11:15:30.161Z,9.50
2018-11-02T11:17:58.604Z,9.50
2018-11-02T11:20:27.047Z,9.50
2018-11-02T11:25:23.704Z,9.50
2018-11-02T11:27:52.157Z,9.50
2018-11-02T11:30:21.212Z,9.50
2018-11-02T11:32:50.644Z,9.50
2018-11-02T11:35:19.648Z,9.40
2018-11-02T11:37:48.121Z,9.50
2018-11-02T11:40:18.924Z,9.50
2018-11-02T11:50:21.686Z,9.60
2018-11-02T11:55:19.643Z,9.60
2018-11-02T11:57:48.119Z,9.60
2018-11-02T12:00:18.647Z,9.50
2018-11-02T12:02:47.989Z,9.60
2018-11-02T12:05:17.737Z,9.60
2018-11-02T12:10:21.656Z,9.60
2018-11-02T12:12:50.042Z,9.70
2018-11-02T12:15:20.772Z,9.60
2018-11-02T12:17:49.692Z,9.70
2018-11-02T12:20:19.712Z,9.70
2018-11-02T12:22:48.976Z,9.70
2018-11-02T12:25:17.472Z,9.70
2018-11-02T12:27:45.943Z,9.70
2018-11-02T12:30:15.552Z,9.70
2018-11-02T12:35:13.401Z,9.70
2018-11-02T12:37:41.881Z,9.70
2018-11-02T12:40:14.145Z,9.70
2018-11-02T12:42:43.046Z,9.70
2018-11-02T12:45:14.606Z,9.70
2018-11-02T12:47:43.731Z,9.70
2018-11-02T12:55:13.200Z,9.90
2018-11-02T12:57:42.028Z,9.90
2018-11-02T13:05:12.444Z,9.90
2018-11-02T13:07:41.101Z,9.90
2018-11-02T13:10:10.984Z,9.90
2018-11-02T13:12:40.487Z,9.90
2018-11-02T13:15:10.865Z,9.90
2018-11-02T13:17:40.016Z,9.80
2018-11-02T13:20:08.963Z,9.80
2018-11-02T13:22:37.829Z,9.80
2018-11-02T13:25:07.538Z,9.80
2018-11-02T13:27:36.026Z,9.80
2018-11-02T13:30:04.782Z,9.90
2018-11-02T13:37:29.841Z,9.90
2018-11-02T13:39:58.284Z,9.90
2018-11-02T13:42:26.712Z,9.90
2018-11-02T13:44:55.122Z,9.90
2018-11-02T13:49:51.725Z,9.90
2018-11-02T13:54:48.279Z,9.90
2018-11-02T13:57:16.693Z,9.90
2018-11-02T14:02:14.192Z,9.90
2018-11-02T14:04:42.608Z,9.90
2018-11-02T14:07:15.008Z,10.00
2018-11-02T14:09:43.526Z,10.00
2018-11-02T14:12:12.091Z,9.90
2018-11-02T14:14:40.541Z,9.90
2018-11-02T14:17:10.928Z,9.90
2018-11-02T14:22:07.605Z,9.90
2018-11-02T14:24:36.081Z,9.90
2018-11-02T14:27:04.588Z,9.90
2018-11-02T14:32:01.255Z,9.80
2018-11-02T14:34:29.697Z,9.90
2018-11-02T14:36:58.154Z,9.80
2018-11-02T14:39:26.611Z,9.80
2018-11-02T14:41:55.075Z,9.80
2018-11-02T14:44:23.539Z,9.80
2018-11-02T14:46:52.035Z,9.80
2018-11-02T14:49:20.452Z,9.90
2018-11-02T14:51:48.936Z,9.90
2018-11-02T14:56:45.551Z,10.00
2018-11-02T14:59:14.013Z,9.90
2018-11-02T15:01:42.450Z,9.90
2018-11-02T15:04:10.919Z,9.90
2018-11-02T15:09:10.041Z,9.80
2018-11-02T15:11:38.496Z,9.80
2018-11-02T15:16:35.320Z,9.80
2018-11-02T15:21:31.975Z,9.80
2018-11-02T15:24:00.419Z,9.70
2018-11-02T15:26:28.968Z,9.70
2018-11-02T15:28:57.320Z,9.70
2018-11-02T15:31:25.765Z,9.70
2018-11-02T15:33:54.252Z,9.70
2018-11-02T15:36:23.568Z,9.70
2018-11-02T15:38:52.064Z,9.70
2018-11-02T15:43:48.704Z,9.70
2018-11-02T15:46:17.084Z,9.60
2018-11-02T15:48:45.488Z,9.60
2018-11-02T15:51:13.888Z,9.60
2018-11-02T15:53:42.300Z,9.60
2018-11-02T15:56:10.719Z,9.70
2018-11-02T16:01:07.521Z,9.70
2018-11-02T16:03:36.631Z,9.60
2018-11-02T16:08:33.370Z,9.60
2018-11-02T16:11:01.825Z,9.60
2018-11-02T16:13:30.469Z,9.60
2018-11-02T16:15:58.942Z,9.70
2018-11-02T16:18:27.800Z,9.70
2018-11-02T16:20:56.257Z,9.60
2018-11-02T16:23:24.809Z,9.60
2018-11-02T16:30:49.693Z,9.50
2018-11-02T16:33:18.120Z,9.50
2018-11-02T16:35:47.483Z,9.50
2018-11-02T16:40:44.443Z,9.50
2018-11-02T16:43:13.947Z,9.60
2018-11-02T16:45:43.345Z,9.60
2018-11-02T16:48:11.886Z,9.60
2018-11-02T16:50:40.327Z,9.60
2018-11-02T16:53:08.840Z,9.60
2018-11-02T16:58:05.618Z,9.50
2018-11-02T17:00:34.143Z,9.60
2018-11-02T17:07:58.976Z,9.50
2018-11-02T17:10:27.684Z,9.40
2018-11-02T17:12:56.255Z,9.40
2018-11-02T17:15:24.722Z,9.40
2018-11-02T17:17:53.245Z,9.40
2018-11-02T17:20:21.689Z,9.30
2018-11-02T17:22:50.172Z,9.30
2018-11-02T17:25:18.710Z,9.30
2018-11-02T17:27:47.229Z,9.30
2018-11-02T17:32:45.256Z,9.30
2018-11-02T17:40:12.649Z,9.20
2018-11-02T17:42:41.297Z,9.30
2018-11-02T17:45:09.915Z,9.30
2018-11-02T17:47:39.379Z,9.30
2018-11-02T17:52:36.545Z,9.30
2018-11-02T17:55:05.088Z,9.30
2018-11-02T17:57:33.506Z,9.30
2018-11-02T18:00:02.058Z,9.30
2018-11-02T18:04:58.682Z,9.30
2018-11-02T18:07:27.188Z,9.20
2018-11-02T18:09:55.676Z,9.20
2018-11-02T18:14:52.341Z,9.10
2018-11-02T18:17:20.776Z,9.10
2018-11-02T18:19:49.288Z,9.10
2018-11-02T18:22:17.870Z,9.20
2018-11-02T18:24:46.291Z,9.20
2018-11-02T18:27:14.741Z,9.10
2018-11-02T18:29:43.189Z,9.20
2018-11-02T18:34:39.872Z,9.10
2018-11-02T18:37:08.271Z,9.10
2018-11-02T18:39:36.709Z,9.10
2018-11-02T18:42:05.287Z,9.10
2018-11-02T18:44:33.780Z,9.10
2018-11-02T18:47:02.268Z,9.10
2018-11-02T18:49:30.696Z,9.10
2018-11-02T18:54:27.366Z,9.00
2018-11-02T18:59:24.056Z,9.10
2018-11-02T19:04:21.485Z,9.10
2018-11-02T19:06:49.968Z,9.10
2018-11-02T19:09:18.491Z,9.00
2018-11-02T19:14:15.045Z,9.00
2018-11-02T19:16:43.467Z,9.00
2018-11-02T19:19:11.903Z,9.00
2018-11-02T19:21:40.403Z,9.00
2018-11-02T19:24:08.838Z,9.00
2018-11-02T19:26:37.278Z,9.00
2018-11-02T19:29:06.381Z,9.00
2018-11-02T19:34:03.018Z,9.00
2018-11-02T19:36:31.409Z,8.90
2018-11-02T19:38:59.816Z,8.90
2018-11-02T19:43:56.384Z,8.90
2018-11-02T19:46:24.828Z,8.80
2018-11-02T19:48:53.403Z,8.80
2018-11-02T19:51:21.819Z,8.80
2018-11-02T19:53:50.252Z,8.80
2018-11-02T19:58:46.848Z,8.80
2018-11-02T20:01:15.843Z,8.80
2018-11-02T20:06:12.380Z,8.80
2018-11-02T20:11:09.067Z,8.70
2018-11-02T20:13:37.544Z,8.70
2018-11-02T20:16:06.228Z,8.70
2018-11-02T20:18:34.674Z,8.80
2018-11-02T20:21:03.153Z,8.70
2018-11-02T20:23:31.602Z,8.70
2018-11-02T20:28:28.267Z,8.60
2018-11-02T20:30:56.730Z,8.50
2018-11-02T20:33:25.184Z,8.60
2018-11-02T20:35:53.686Z,8.50
2018-11-02T20:38:22.153Z,8.60
2018-11-02T20:43:18.740Z,8.60
2018-11-02T20:48:15.316Z,8.50
2018-11-02T20:50:43.800Z,8.50
2018-11-02T20:53:12.275Z,8.50
2018-11-02T20:55:40.688Z,8.50
2018-11-02T20:58:09.149Z,8.50
2018-11-02T21:00:37.593Z,8.60
2018-11-02T21:08:02.561Z,8.70
2018-11-02T21:10:30.901Z,8.70
2018-11-02T21:15:27.487Z,8.80
2018-11-02T21:17:55.956Z,8.90
2018-11-02T21:20:25.512Z,8.90
2018-11-02T21:22:53.890Z,8.90
2018-11-02T21:25:22.339Z,8.80
2018-11-02T21:27:50.800Z,8.80
2018-11-02T21:30:20.561Z,8.80
2018-11-02T21:32:49.656Z,8.80
2018-11-02T21:35:18.740Z,8.80
2018-11-02T21:37:47.730Z,8.70
2018-11-02T21:40:17.541Z,8.70
2018-11-02T21:42:45.984Z,8.80
2018-11-02T21:45:16.569Z,8.80
2018-11-02T21:52:44.205Z,8.90
2018-11-02T21:55:12.725Z,8.90
2018-11-02T21:57:41.216Z,9.00
2018-11-02T22:00:15.327Z,9.00
2018-11-02T22:02:43.912Z,9.00
2018-11-02T22:05:13.109Z,8.90
2018-11-02T22:07:42.501Z,8.90
2018-11-02T22:10:11.769Z,8.90
2018-11-02T22:12:40.232Z,8.90
2018-11-02T22:15:09.419Z,9.00
2018-11-02T22:22:35.179Z,8.90
2018-11-02T22:25:03.786Z,8.90
2018-11-02T22:27:32.237Z,8.90
2018-11-02T22:32:28.814Z,8.90
2018-11-02T22:37:25.367Z,8.90
2018-11-02T22:39:53.825Z,9.00
2018-11-02T22:44:50.368Z,8.90
2018-11-02T22:47:18.788Z,8.80
2018-11-02T22:49:47.206Z,8.90
2018-11-02T22:52:15.651Z,8.90
2018-11-02T22:54:44.059Z,8.90
2018-11-02T22:57:12.514Z,8.90
2018-11-02T23:02:09.164Z,9.00
2018-11-02T23:04:37.543Z,8.90
2018-11-02T23:07:06.025Z,9.00
2018-11-02T23:09:34.593Z,9.00
2018-11-02T23:12:03.092Z,8.90
2018-11-02T23:14:31.530Z,8.90
2018-11-02T23:17:00.024Z,8.90
2018-11-02T23:21:56.676Z,8.90
2018-11-02T23:24:25.212Z,8.90
2018-11-02T23:26:53.668Z,9.00
2018-11-02T23:29:22.078Z,8.90
2018-11-02T23:31:50.457Z,8.90
2018-11-02T23:34:18.947Z,8.80
2018-11-02T23:36:47.372Z,8.80
2018-11-02T23:41:44.381Z,8.90
2018-11-02T23:44:12.844Z,8.90
2018-11-02T23:46:41.312Z,8.90
2018-11-02T23:56:35.349Z,8.80
